Αρχική σελίδα
METAR-TAF:

METAR-TAF

Αεροδρόμια :

El Oued, Αλγερία

γεωγραφικό πλάτος: 33-30-47N, γεωγραφικό μήκος: 006-46-57E, υψόμετρο: 62 μ

Παρών καιρός

Η αναφορά έγινε 57 λεπτά πριν, στις 10:00 UTC
Άνεμος 2 kt από BA
Θερμοκρασία 33°C
Υγρασία 36%
Πίεση 1018 hPa
Ορατότητα 10 χλμ και άνω
Λίγα νέφη σε ύψος 3000 πόδια
Διάσπαρτα νέφη σε ύψος 20000 πόδια

METAR: DAUO 191000Z 04002KT 9999 FEW030 SCT200 33/16 Q1018

Χρόνος: 11:57 (10:57 UTC)

Πρόγνωση Καιρού

Η αναφορά έγινε 5 ώρες και 57 λεπτά πριν, στις 05:00 UTC
Η πρόγνωση ισχύει από τις 19 στις 06 UTC έως τις 19 στις 15 UTC
Άνεμος 8 kt από Β
Ορατότητα 10 χλμ και άνω
Λίγα νέφη σε ύψος 2600 πόδια

TAF: DAUO 190500Z 1906/1915 35008KT 9999 FEW026

Μετεωρολογικές αναφορές και προγνώσεις για περισσότερα από 4000 αεροδρόμια (δελτία METAR και TAF).

Οι διαθέσιμοι σταθμοί απεικονίζονται στο χάρτη με κίτρινες και κόκκινες κουκκίδες.

Μετακινήστε το ποντίκι πάνω από τις κουκκίδες για να δείτε το όνομα του σταθμού.

Στη συνέχεια, κάντε κλικ για να δείτε τις μετεωρολογικές αναφορές και τις προγνώσεις καιρού.

Για να αλλάξετε το χάρτη: κάντε κλικ στα πράσινα κουμπιά με τον μαύρο σταυρό για να ζουμάρετε, στο πράσινο κουμπί με την παύλα για να αφαιρέσετε το ζουμ ή στα πράσινα βέλη για να αντιπαραβάλλετε χάρτες.


METAR-TAF: